createdAt,value
2018-09-10T00:01:12.360Z,10.70
2018-09-10T00:03:40.637Z,10.70
2018-09-10T00:06:08.889Z,10.60
2018-09-10T00:08:37.197Z,10.60
2018-09-10T00:11:05.432Z,10.60
2018-09-10T00:13:33.704Z,10.60
2018-09-10T00:16:02.028Z,10.50
2018-09-10T00:18:30.282Z,10.60
2018-09-10T00:20:58.558Z,10.60
2018-09-10T00:23:27.338Z,10.60
2018-09-10T00:25:56.306Z,10.60
2018-09-10T00:28:24.580Z,10.50
2018-09-10T00:30:53.009Z,10.50
2018-09-10T00:33:21.272Z,10.40
2018-09-10T00:35:49.903Z,10.40
2018-09-10T00:38:18.233Z,10.30
2018-09-10T00:40:46.511Z,10.30
2018-09-10T00:43:14.891Z,10.40
2018-09-10T00:45:43.164Z,10.30
2018-09-10T00:48:11.423Z,10.30
2018-09-10T00:50:39.713Z,10.30
2018-09-10T00:53:08.139Z,10.30
2018-09-10T00:55:36.518Z,10.30
2018-09-10T00:58:04.793Z,10.30
2018-09-10T01:00:33.070Z,10.30
2018-09-10T01:03:01.372Z,10.30
2018-09-10T01:05:29.654Z,10.30
2018-09-10T01:07:57.929Z,10.30
2018-09-10T01:10:26.200Z,10.30
2018-09-10T01:12:54.509Z,10.30
2018-09-10T01:15:22.785Z,10.30
2018-09-10T01:17:51.039Z,10.30
2018-09-10T01:20:19.361Z,10.20
2018-09-10T01:22:47.668Z,10.20
2018-09-10T01:25:15.926Z,10.20
2018-09-10T01:27:44.203Z,10.20
2018-09-10T01:30:12.508Z,10.10
2018-09-10T01:32:40.823Z,10.00
2018-09-10T01:35:09.072Z,10.00
2018-09-10T01:37:37.357Z,10.00
2018-09-10T01:40:05.691Z,10.00
2018-09-10T01:42:33.996Z,9.90
2018-09-10T01:45:02.650Z,9.90
2018-09-10T01:47:30.972Z,9.90
2018-09-10T01:49:59.263Z,9.90
2018-09-10T01:52:28.258Z,9.90
2018-09-10T01:54:56.578Z,9.90
2018-09-10T01:57:24.962Z,9.90
2018-09-10T01:59:53.366Z,9.80
2018-09-10T02:02:21.641Z,9.80
2018-09-10T02:04:49.955Z,9.80
2018-09-10T02:07:18.202Z,9.80
2018-09-10T02:09:46.488Z,9.80
2018-09-10T02:12:20.237Z,9.80
2018-09-10T02:14:48.531Z,9.80
2018-09-10T02:17:16.934Z,9.70
2018-09-10T02:19:45.137Z,9.60
2018-09-10T02:22:13.467Z,9.60
2018-09-10T02:24:41.758Z,9.60
2018-09-10T02:27:10.069Z,9.60
2018-09-10T02:29:38.379Z,9.60
2018-09-10T02:32:06.653Z,9.60
2018-09-10T02:34:34.933Z,9.50
2018-09-10T02:37:03.179Z,9.50
2018-09-10T02:39:31.541Z,9.50
2018-09-10T02:41:59.782Z,9.40
2018-09-10T02:44:28.041Z,9.40
2018-09-10T02:46:56.350Z,9.30
2018-09-10T02:49:24.633Z,9.30
2018-09-10T02:51:53.020Z,9.30
2018-09-10T02:54:21.305Z,9.30
2018-09-10T02:56:49.761Z,9.30
2018-09-10T02:59:18.059Z,9.30
2018-09-10T03:01:46.332Z,9.30
2018-09-10T03:04:14.660Z,9.20
2018-09-10T03:06:42.932Z,9.30
2018-09-10T03:09:11.207Z,9.30
2018-09-10T03:11:39.479Z,9.20
2018-09-10T03:14:08.167Z,9.20
2018-09-10T03:16:36.420Z,9.20
2018-09-10T03:19:04.694Z,9.20
2018-09-10T03:21:32.999Z,9.20
2018-09-10T03:24:01.381Z,9.20
2018-09-10T03:26:29.593Z,9.20
2018-09-10T03:28:57.878Z,9.20
2018-09-10T03:31:26.145Z,9.20
2018-09-10T03:33:54.420Z,9.10
2018-09-10T03:36:22.701Z,9.10
2018-09-10T03:38:52.017Z,9.10
2018-09-10T03:41:21.274Z,9.00
2018-09-10T03:43:49.531Z,9.00
2018-09-10T03:46:17.839Z,9.00
2018-09-10T03:48:46.110Z,9.00
2018-09-10T03:51:15.190Z,8.90
2018-09-10T03:53:43.465Z,8.90
2018-09-10T03:56:11.718Z,8.90
2018-09-10T03:58:40.303Z,8.90
2018-09-10T04:01:08.732Z,8.90
2018-09-10T04:03:37.039Z,8.90
2018-09-10T04:06:05.520Z,8.90
2018-09-10T04:08:34.302Z,8.80
2018-09-10T04:11:02.613Z,8.80
2018-09-10T04:13:30.954Z,8.70
2018-09-10T04:15:59.203Z,8.70
2018-09-10T04:18:27.498Z,8.70
2018-09-10T04:21:01.466Z,8.70
2018-09-10T04:23:29.729Z,8.70
2018-09-10T04:25:58.020Z,8.60
2018-09-10T04:28:26.276Z,8.70
2018-09-10T04:30:54.562Z,8.60
2018-09-10T04:33:22.855Z,8.60
2018-09-10T04:35:51.661Z,8.70
2018-09-10T04:38:19.930Z,8.70
2018-09-10T04:40:48.214Z,8.70
2018-09-10T04:43:16.488Z,8.70
2018-09-10T04:45:44.792Z,8.70
2018-09-10T04:48:13.106Z,8.70
2018-09-10T04:50:41.351Z,8.70
2018-09-10T04:53:09.648Z,8.60
2018-09-10T04:55:37.964Z,8.60
2018-09-10T04:58:06.301Z,8.60
2018-09-10T05:00:35.521Z,8.60
2018-09-10T05:03:03.842Z,8.70
2018-09-10T05:05:32.105Z,8.60
2018-09-10T05:08:00.420Z,8.60
2018-09-10T05:10:28.725Z,8.60
2018-09-10T05:12:57.067Z,8.60
2018-09-10T05:15:25.349Z,8.60
2018-09-10T05:17:53.653Z,8.70
2018-09-10T05:20:21.930Z,8.70
2018-09-10T05:22:50.201Z,8.70
2018-09-10T05:25:18.474Z,8.80
2018-09-10T05:27:46.865Z,8.80
2018-09-10T05:30:15.138Z,9.00
2018-09-10T05:32:43.414Z,8.90
2018-09-10T05:35:11.719Z,8.90
2018-09-10T05:37:40.060Z,8.90
2018-09-10T05:40:09.348Z,9.00
2018-09-10T05:42:37.801Z,9.10
2018-09-10T05:45:07.719Z,9.10
2018-09-10T05:47:36.005Z,9.20
2018-09-10T05:50:04.402Z,9.20
2018-09-10T05:52:32.672Z,9.20
2018-09-10T05:55:01.018Z,9.30
2018-09-10T05:57:29.315Z,9.40
2018-09-10T05:59:57.588Z,9.50
2018-09-10T06:02:25.892Z,9.70
2018-09-10T06:04:54.215Z,9.90
2018-09-10T06:07:22.513Z,10.10
2018-09-10T06:09:50.854Z,10.30
2018-09-10T06:12:19.180Z,10.60
2018-09-10T06:14:47.715Z,10.80
2018-09-10T06:17:16.000Z,11.00
2018-09-10T06:19:44.332Z,11.10
2018-09-10T06:22:12.705Z,11.10
2018-09-10T06:24:41.261Z,11.10
2018-09-10T06:27:09.764Z,11.20
2018-09-10T06:29:38.117Z,11.20
2018-09-10T06:32:06.460Z,11.20
2018-09-10T06:34:34.820Z,11.20
2018-09-10T06:37:03.202Z,11.40
2018-09-10T06:39:32.557Z,11.60
2018-09-10T06:42:00.831Z,11.90
2018-09-10T06:44:29.053Z,12.10
2018-09-10T06:46:57.287Z,12.30
2018-09-10T06:49:25.536Z,12.40
2018-09-10T06:51:53.860Z,12.50
2018-09-10T06:54:22.135Z,12.70
2018-09-10T06:56:50.425Z,13.00
2018-09-10T06:59:18.669Z,13.10
2018-09-10T07:01:46.942Z,13.30
2018-09-10T07:04:15.265Z,13.40
2018-09-10T07:06:43.533Z,13.40
2018-09-10T07:09:11.833Z,13.60
2018-09-10T07:11:40.530Z,13.60
2018-09-10T07:14:08.836Z,13.60
2018-09-10T07:16:37.107Z,13.70
2018-09-10T07:19:05.541Z,13.80
2018-09-10T07:21:33.748Z,13.80
2018-09-10T07:24:02.014Z,14.00
2018-09-10T07:26:30.252Z,14.30
2018-09-10T07:28:58.493Z,14.60
2018-09-10T07:31:26.732Z,14.60
2018-09-10T07:33:55.031Z,14.40
2018-09-10T07:36:24.093Z,14.70
2018-09-10T07:38:52.729Z,15.20
2018-09-10T07:41:20.978Z,15.40
2018-09-10T07:43:49.524Z,15.70
2018-09-10T07:46:17.745Z,15.80
2018-09-10T07:48:46.025Z,16.00
2018-09-10T07:51:14.262Z,15.90
2018-09-10T07:53:42.510Z,16.10
2018-09-10T07:56:10.768Z,15.90
2018-09-10T07:58:39.042Z,15.80
2018-09-10T08:01:07.273Z,16.10
2018-09-10T08:03:35.529Z,16.00
2018-09-10T08:06:03.795Z,15.90
2018-09-10T08:08:32.012Z,16.20
2018-09-10T08:11:00.359Z,16.20
2018-09-10T08:13:28.646Z,16.40
2018-09-10T08:15:57.012Z,16.70
2018-09-10T08:18:25.287Z,16.90
2018-09-10T08:20:53.547Z,17.10
2018-09-10T08:23:21.785Z,17.20
2018-09-10T08:25:50.027Z,17.60
2018-09-10T08:28:18.288Z,17.90
2018-09-10T08:30:46.634Z,18.30
2018-09-10T08:33:14.978Z,18.30
2018-09-10T08:35:43.244Z,18.70
2018-09-10T08:38:11.528Z,19.00
2018-09-10T08:40:40.391Z,19.30
2018-09-10T08:43:08.740Z,19.60
2018-09-10T08:45:36.972Z,20.00
2018-09-10T08:48:05.236Z,20.50
2018-09-10T08:50:33.521Z,20.70
2018-09-10T08:53:01.772Z,20.90
2018-09-10T08:55:30.146Z,21.10
2018-09-10T08:57:58.453Z,21.30
2018-09-10T09:00:27.520Z,21.20
2018-09-10T09:02:55.731Z,21.40
2018-09-10T09:05:24.083Z,21.60
2018-09-10T09:07:52.405Z,21.70
2018-09-10T09:10:20.634Z,21.50
2018-09-10T09:12:48.919Z,21.60
2018-09-10T09:15:17.276Z,21.80
2018-09-10T09:17:45.573Z,21.90
2018-09-10T09:20:13.861Z,22.20
2018-09-10T09:22:42.151Z,22.60
2018-09-10T09:25:10.461Z,22.60
2018-09-10T09:27:38.756Z,22.20
2018-09-10T09:30:07.187Z,22.50
2018-09-10T09:32:35.475Z,22.70
2018-09-10T09:35:03.722Z,22.90
2018-09-10T09:37:37.518Z,23.10
2018-09-10T09:40:11.453Z,23.20
2018-09-10T09:42:45.115Z,23.20
2018-09-10T09:45:18.696Z,23.10
2018-09-10T09:47:47.012Z,23.20
2018-09-10T09:50:15.278Z,23.40
2018-09-10T09:52:43.568Z,23.30
2018-09-10T09:55:11.858Z,23.60
2018-09-10T09:57:40.127Z,23.80
2018-09-10T10:00:13.721Z,24.20
2018-09-10T10:02:47.375Z,24.80
2018-09-10T10:05:15.784Z,25.00
2018-09-10T10:07:44.166Z,24.90
2018-09-10T10:10:12.501Z,24.90
2018-09-10T10:12:40.779Z,24.70
2018-09-10T10:15:09.099Z,24.70
2018-09-10T10:17:37.431Z,25.00
2018-09-10T10:20:06.133Z,25.20
2018-09-10T10:22:34.428Z,25.00
2018-09-10T10:25:02.669Z,24.60
2018-09-10T10:27:31.701Z,24.50
2018-09-10T10:30:00.047Z,24.70
2018-09-10T10:32:28.492Z,24.70
2018-09-10T10:34:56.891Z,24.90
2018-09-10T10:37:25.249Z,25.10
2018-09-10T10:39:53.713Z,25.30
2018-09-10T10:42:38.072Z,25.50
2018-09-10T10:45:07.561Z,25.70
2018-09-10T10:47:35.959Z,25.90
2018-09-10T10:50:04.309Z,25.80
2018-09-10T10:52:32.704Z,25.80
2018-09-10T10:55:01.006Z,26.20
2018-09-10T11:00:22.405Z,26.80
2018-09-10T11:02:50.839Z,27.10
2018-09-10T11:05:19.167Z,26.70
2018-09-10T11:07:47.580Z,26.40
2018-09-10T11:10:18.405Z,26.60
2018-09-10T11:12:46.777Z,26.30
2018-09-10T11:15:15.171Z,25.80
2018-09-10T11:17:43.704Z,25.80
2018-09-10T11:20:11.927Z,25.90
2018-09-10T11:22:40.242Z,25.70
2018-09-10T11:25:08.604Z,25.80
2018-09-10T11:27:37.129Z,26.10
2018-09-10T11:30:05.927Z,26.10
2018-09-10T11:32:34.262Z,25.90
2018-09-10T11:35:02.669Z,25.90
2018-09-10T11:37:34.878Z,25.90
2018-09-10T11:40:03.201Z,25.90
2018-09-10T11:42:31.580Z,26.30
2018-09-10T11:45:00.066Z,26.40
2018-09-10T11:47:28.357Z,26.60
2018-09-10T11:49:56.719Z,26.30
2018-09-10T11:52:25.237Z,26.10
2018-09-10T11:54:53.519Z,26.10
2018-09-10T11:57:21.808Z,26.10
2018-09-10T11:59:50.085Z,26.20
2018-09-10T12:02:18.432Z,26.30
2018-09-10T12:04:46.735Z,26.40
2018-09-10T12:07:15.077Z,26.50
2018-09-10T12:09:43.395Z,26.40
2018-09-10T12:12:11.708Z,26.40
2018-09-10T12:14:40.266Z,26.60
2018-09-10T12:17:08.528Z,26.60
2018-09-10T12:19:36.880Z,26.60
2018-09-10T12:22:05.148Z,26.80
2018-09-10T12:24:33.464Z,26.90
2018-09-10T12:27:01.727Z,26.80
2018-09-10T12:29:30.013Z,26.60
2018-09-10T12:31:58.325Z,26.50
2018-09-10T12:34:26.653Z,26.30
2018-09-10T12:36:55.026Z,26.30
2018-09-10T12:39:23.378Z,26.30
2018-09-10T12:41:51.796Z,26.40
2018-09-10T12:44:20.188Z,26.50
2018-09-10T12:46:48.507Z,26.60
2018-09-10T12:49:17.026Z,26.90
2018-09-10T12:51:45.433Z,27.00
2018-09-10T12:54:13.753Z,26.90
2018-09-10T12:56:42.051Z,26.90
2018-09-10T12:59:10.402Z,26.90
2018-09-10T13:01:38.735Z,26.80
2018-09-10T13:04:07.246Z,26.50
2018-09-10T13:06:35.580Z,26.50
2018-09-10T13:09:04.988Z,26.50
2018-09-10T13:11:33.290Z,26.60
2018-09-10T13:14:01.731Z,26.60
2018-09-10T13:16:30.084Z,26.80
2018-09-10T13:18:58.418Z,26.80
2018-09-10T13:21:26.785Z,26.80
2018-09-10T13:23:55.195Z,26.80
2018-09-10T13:26:23.703Z,26.90
2018-09-10T13:28:52.023Z,26.80
2018-09-10T13:31:23.973Z,26.80
2018-09-10T13:33:52.460Z,26.90
2018-09-10T13:36:20.747Z,27.10
2018-09-10T13:38:49.160Z,27.40
2018-09-10T13:41:17.436Z,27.50
2018-09-10T13:43:45.776Z,27.50
2018-09-10T13:46:14.073Z,27.50
2018-09-10T13:48:42.641Z,27.50
2018-09-10T13:51:10.928Z,27.50
2018-09-10T13:53:39.280Z,27.60
2018-09-10T13:56:07.548Z,27.50
2018-09-10T13:58:35.990Z,27.40
2018-09-10T14:01:04.311Z,27.20
2018-09-10T14:03:32.902Z,27.10
2018-09-10T14:06:01.135Z,27.00
2018-09-10T14:08:29.459Z,27.10
2018-09-10T14:10:58.213Z,27.10
2018-09-10T14:13:26.509Z,27.20
2018-09-10T14:15:54.787Z,27.20
2018-09-10T14:18:23.152Z,27.30
2018-09-10T14:20:51.428Z,27.30
2018-09-10T14:23:19.734Z,27.40
2018-09-10T14:25:48.069Z,27.30
2018-09-10T14:28:16.362Z,27.20
2018-09-10T14:30:44.644Z,27.20
2018-09-10T14:33:12.913Z,27.30
2018-09-10T14:35:41.188Z,27.30
2018-09-10T14:38:09.558Z,27.30
2018-09-10T14:40:37.980Z,27.40
2018-09-10T14:43:06.268Z,27.40
2018-09-10T14:45:35.207Z,27.40
2018-09-10T14:48:03.626Z,27.40
2018-09-10T14:50:32.041Z,27.20
2018-09-10T14:53:00.264Z,27.10
2018-09-10T14:55:28.617Z,27.10
2018-09-10T14:57:56.878Z,27.20
2018-09-10T15:00:26.181Z,27.30
2018-09-10T15:02:55.278Z,27.20
2018-09-10T15:05:23.582Z,27.30
2018-09-10T15:07:52.903Z,27.30
2018-09-10T15:10:21.176Z,27.30
2018-09-10T15:12:49.458Z,27.20
2018-09-10T15:15:17.928Z,27.20
2018-09-10T15:17:46.483Z,27.10
2018-09-10T15:20:14.799Z,27.10
2018-09-10T15:22:43.062Z,27.10
2018-09-10T15:25:11.461Z,27.00
2018-09-10T15:27:39.754Z,27.00
2018-09-10T15:30:08.180Z,27.00
2018-09-10T15:32:36.488Z,27.00
2018-09-10T15:35:05.076Z,27.00
2018-09-10T15:37:33.399Z,27.10
2018-09-10T15:40:01.696Z,27.10
2018-09-10T15:42:29.971Z,26.90
2018-09-10T15:44:58.271Z,26.90
2018-09-10T15:47:26.557Z,27.00
2018-09-10T15:49:54.874Z,27.00
2018-09-10T15:52:23.159Z,27.00
2018-09-10T15:54:51.405Z,27.00
2018-09-10T15:57:19.727Z,26.90
2018-09-10T15:59:47.887Z,27.00
2018-09-10T16:02:16.240Z,26.80
2018-09-10T16:04:44.584Z,26.80
2018-09-10T16:07:12.914Z,26.60
2018-09-10T16:09:41.144Z,26.70
2018-09-10T16:12:09.498Z,26.80
2018-09-10T16:14:37.753Z,26.80
2018-09-10T16:17:06.028Z,26.80
2018-09-10T16:19:34.352Z,26.80
2018-09-10T16:22:02.611Z,26.90
2018-09-10T16:24:30.892Z,26.90
2018-09-10T16:26:59.242Z,26.80
2018-09-10T16:29:33.231Z,26.90
2018-09-10T16:32:01.493Z,26.90
2018-09-10T16:34:29.732Z,26.80
2018-09-10T16:36:57.996Z,26.90
2018-09-10T16:39:26.374Z,27.00
2018-09-10T16:41:54.648Z,27.00
2018-09-10T16:44:22.863Z,27.20
2018-09-10T16:46:51.179Z,27.20
2018-09-10T16:49:19.370Z,27.30
2018-09-10T16:51:47.641Z,27.40
2018-09-10T16:54:16.124Z,27.40
2018-09-10T16:56:44.284Z,27.30
2018-09-10T16:59:18.393Z,26.80
2018-09-10T17:01:46.704Z,26.60
2018-09-10T17:04:15.000Z,26.60
2018-09-10T17:06:43.281Z,26.60
2018-09-10T17:09:11.610Z,26.40
2018-09-10T17:11:40.229Z,26.20
2018-09-10T17:14:32.312Z,26.00
2018-09-10T17:17:00.646Z,25.80
2018-09-10T17:19:29.001Z,25.50
2018-09-10T17:22:02.927Z,25.40
2018-09-10T17:24:42.866Z,25.20
2018-09-10T17:27:14.750Z,25.20
2018-09-10T17:29:42.991Z,25.10
2018-09-10T17:32:21.820Z,25.00
2018-09-10T17:34:50.807Z,24.90
2018-09-10T17:37:19.037Z,24.80
2018-09-10T17:39:47.878Z,24.70
2018-09-10T17:42:16.176Z,24.70
2018-09-10T17:44:44.468Z,24.60
2018-09-10T17:47:12.968Z,24.50
2018-09-10T17:49:41.080Z,24.40
2018-09-10T17:52:09.372Z,24.20
2018-09-10T17:54:37.650Z,24.10
2018-09-10T17:57:05.968Z,24.00
2018-09-10T17:59:34.372Z,23.90
2018-09-10T18:02:02.769Z,23.80
2018-09-10T18:04:31.079Z,23.70
2018-09-10T18:06:59.487Z,23.60
2018-09-10T18:09:27.798Z,23.60
2018-09-10T18:11:57.064Z,23.40
2018-09-10T18:14:25.365Z,23.40
2018-09-10T18:16:53.960Z,23.30
2018-09-10T18:19:22.218Z,23.20
2018-09-10T18:21:50.549Z,23.10
2018-09-10T18:24:18.834Z,23.00
2018-09-10T18:26:47.115Z,22.90
2018-09-10T18:29:15.391Z,22.70
2018-09-10T18:31:43.669Z,22.60
2018-09-10T18:34:12.006Z,22.40
2018-09-10T18:36:40.326Z,22.30
2018-09-10T18:39:09.745Z,22.20
2018-09-10T18:41:38.067Z,22.10
2018-09-10T18:44:06.644Z,22.00
2018-09-10T18:46:34.973Z,21.80
2018-09-10T18:49:03.373Z,21.70
2018-09-10T18:51:31.663Z,21.60
2018-09-10T18:53:59.931Z,21.50
2018-09-10T18:56:28.321Z,21.40
2018-09-10T18:58:57.715Z,21.30
2018-09-10T19:01:26.082Z,21.20
2018-09-10T19:03:55.105Z,21.10
2018-09-10T19:06:24.501Z,21.00
2018-09-10T19:08:52.773Z,20.90
2018-09-10T19:11:21.292Z,20.80
2018-09-10T19:13:49.972Z,20.80
2018-09-10T19:16:19.696Z,20.80
2018-09-10T19:18:50.041Z,20.70
2018-09-10T19:21:18.406Z,20.70
2018-09-10T19:23:47.790Z,20.70
2018-09-10T19:26:16.144Z,20.70
2018-09-10T19:28:44.445Z,20.70
2018-09-10T19:31:12.736Z,20.60
2018-09-10T19:33:44.286Z,20.60
2018-09-10T19:36:12.581Z,20.50
2018-09-10T19:38:41.776Z,20.30
2018-09-10T19:41:11.073Z,20.20
2018-09-10T19:43:39.439Z,20.10
2018-09-10T19:46:07.762Z,20.00
2018-09-10T19:48:36.250Z,19.90
2018-09-10T19:51:04.567Z,19.80
2018-09-10T19:53:32.860Z,19.70
2018-09-10T19:56:01.147Z,19.60
2018-09-10T19:58:42.151Z,19.50
2018-09-10T20:01:10.569Z,19.40
2018-09-10T20:03:38.962Z,19.30
2018-09-10T20:06:07.257Z,19.20
2018-09-10T20:08:36.817Z,19.10
2018-09-10T20:11:05.189Z,19.00
2018-09-10T20:13:33.503Z,18.90
2018-09-10T20:16:04.346Z,18.90
2018-09-10T20:18:32.794Z,18.80
2018-09-10T20:21:01.292Z,18.70
2018-09-10T20:23:37.114Z,18.70
2018-09-10T20:26:05.535Z,18.60
2018-09-10T20:28:33.803Z,18.60
2018-09-10T20:31:02.215Z,18.50
2018-09-10T20:33:35.076Z,18.40
2018-09-10T20:36:03.432Z,18.40
2018-09-10T20:38:31.707Z,18.40
2018-09-10T20:40:59.982Z,18.30
2018-09-10T20:43:28.255Z,18.20
2018-09-10T20:45:56.540Z,18.20
2018-09-10T20:48:24.816Z,18.10
2018-09-10T20:50:53.092Z,18.10
2018-09-10T20:53:21.793Z,18.10
2018-09-10T20:55:56.700Z,18.00
2018-09-10T20:58:41.068Z,18.00
2018-09-10T21:01:09.530Z,17.90
2018-09-10T21:03:39.090Z,17.90
2018-09-10T21:06:07.802Z,17.80
2018-09-10T21:08:37.000Z,17.80
2018-09-10T21:11:05.289Z,17.70
2018-09-10T21:13:41.983Z,17.60
2018-09-10T21:16:10.282Z,17.50
2018-09-10T21:18:38.614Z,17.50
2018-09-10T21:21:07.020Z,17.50
2018-09-10T21:23:56.171Z,17.50
2018-09-10T21:26:24.463Z,17.50
2018-09-10T21:28:52.864Z,17.40
2018-09-10T21:31:21.251Z,17.40
2018-09-10T21:33:49.518Z,17.30
2018-09-10T21:36:17.904Z,17.30
2018-09-10T21:38:46.185Z,17.20
2018-09-10T21:41:14.524Z,17.20
2018-09-10T21:43:42.998Z,17.10
2018-09-10T21:46:11.283Z,17.00
2018-09-10T21:48:39.805Z,17.00
2018-09-10T21:51:08.081Z,16.90
2018-09-10T21:53:36.454Z,16.80
2018-09-10T21:56:04.733Z,16.80
2018-09-10T21:58:33.044Z,16.80
2018-09-10T22:01:01.355Z,16.70
2018-09-10T22:03:29.670Z,16.70
2018-09-10T22:05:57.998Z,16.70
2018-09-10T22:08:26.259Z,16.60
2018-09-10T22:10:54.551Z,16.50
2018-09-10T22:13:23.284Z,16.50
2018-09-10T22:15:51.557Z,16.50
2018-09-10T22:18:19.932Z,16.50
2018-09-10T22:20:48.208Z,16.50
2018-09-10T22:23:27.771Z,16.40
2018-09-10T22:25:56.051Z,16.40
2018-09-10T22:28:24.384Z,16.30
2018-09-10T22:30:52.660Z,16.30
2018-09-10T22:33:20.956Z,16.20
2018-09-10T22:35:49.236Z,16.10
2018-09-10T22:38:17.551Z,16.00
2018-09-10T22:40:45.828Z,15.90
2018-09-10T22:43:14.158Z,15.90
2018-09-10T22:45:42.455Z,15.80
2018-09-10T22:48:10.743Z,15.80
2018-09-10T22:50:39.003Z,15.80
2018-09-10T22:53:07.259Z,15.70
2018-09-10T22:55:35.545Z,15.60
2018-09-10T22:58:03.845Z,15.60
2018-09-10T23:00:32.126Z,15.50
2018-09-10T23:03:00.471Z,15.40
2018-09-10T23:05:28.803Z,15.30
2018-09-10T23:07:57.043Z,15.20
2018-09-10T23:10:25.328Z,15.10
2018-09-10T23:12:53.629Z,15.10
2018-09-10T23:15:21.935Z,15.10
2018-09-10T23:17:50.236Z,15.00
2018-09-10T23:20:18.540Z,15.00
2018-09-10T23:22:46.800Z,14.90
2018-09-10T23:25:15.069Z,14.80
2018-09-10T23:27:43.363Z,14.80
2018-09-10T23:30:18.670Z,14.70
2018-09-10T23:32:46.979Z,14.60
2018-09-10T23:35:15.254Z,14.60
2018-09-10T23:37:43.517Z,14.50
2018-09-10T23:40:11.788Z,14.50
2018-09-10T23:42:40.067Z,14.50
2018-09-10T23:45:08.357Z,14.40
2018-09-10T23:47:36.719Z,14.30
2018-09-10T23:50:05.729Z,14.30
2018-09-10T23:52:33.990Z,14.30
2018-09-10T23:55:02.700Z,14.20
2018-09-10T23:57:30.933Z,14.20
2018-09-10T23:59:59.181Z,14.20
